Time;durP1;ratioP1;P1;durP2;ratioP2;P2;SDS_P1;SDS_P2;PMS_P1;PMS_P2;Temp;Humidity;BMP_temperature;BMP_pressure;BME280_temperature;BME280_humidity;BME280_pressure;Samples;Min_cycle;Max_cycle;Signal;HPM_P1;HPM_P2
2023/09/18 00:02:25;;;;;;;9.07;8.27;;;17.30;80.10;;;;;;5053132;28;20052;-70
2023/09/18 00:04:52;;;;;;;7.55;6.93;;;17.30;80.10;;;;;;5069273;28;20523;-70
2023/09/18 00:07:18;;;;;;;7.18;6.10;;;17.30;80.10;;;;;;5053059;28;20044;-70
2023/09/18 00:09:43;;;;;;;8.95;8.05;;;17.30;80.10;;;;;;5036384;28;20041;-70
2023/09/18 00:12:09;;;;;;;7.22;6.53;;;17.30;80.10;;;;;;5052671;28;20079;-70
2023/09/18 00:14:36;;;;;;;6.28;5.32;;;17.30;80.10;;;;;;5052407;28;20047;-70
2023/09/18 00:17:03;;;;;;;14.40;12.63;;;17.30;80.10;;;;;;5036119;28;20049;-70
2023/09/18 00:19:28;;;;;;;22.42;19.35;;;17.20;80.10;;;;;;5053055;28;20419;-70
2023/09/18 00:21:54;;;;;;;21.23;18.88;;;17.20;80.60;;;;;;5052586;28;20045;-70
2023/09/18 00:24:20;;;;;;;22.40;20.05;;;17.30;81.50;;;;;;5051441;28;20033;-70
2023/09/18 00:26:47;;;;;;;27.63;24.35;;;17.30;82.10;;;;;;5052390;28;20047;-70
2023/09/18 00:29:13;;;;;;;21.58;19.30;;;17.30;82.90;;;;;;5052917;28;20144;-70
2023/09/18 00:31:39;;;;;;;24.52;21.98;;;17.40;83.30;;;;;;5052272;28;20052;-70
2023/09/18 00:34:05;;;;;;;25.58;22.83;;;17.30;83.70;;;;;;5051917;28;20029;-70
2023/09/18 00:36:30;;;;;;;23.20;20.83;;;17.40;84.10;;;;;;5035983;28;20094;-70
2023/09/18 00:38:56;;;;;;;25.92;23.38;;;17.40;84.40;;;;;;5035973;28;20045;-70
2023/09/18 00:41:22;;;;;;;28.27;24.20;;;17.40;84.60;;;;;;5051766;28;20060;-70
2023/09/18 00:43:47;;;;;;;28.05;25.10;;;17.40;85.10;;;;;;5052156;28;20128;-70
2023/09/18 00:46:13;;;;;;;28.85;25.33;;;17.50;85.50;;;;;;5035687;28;20037;-70
2023/09/18 00:48:39;;;;;;;27.45;24.40;;;17.50;85.80;;;;;;5052220;28;20044;-70
2023/09/18 00:51:08;;;;;;;27.63;24.70;;;17.50;86.00;;;;;;5052247;28;20149;-70
2023/09/18 00:53:34;;;;;;;23.35;20.98;;;17.50;86.20;;;;;;5052437;28;20045;-70
2023/09/18 00:56:02;;;;;;;27.13;24.23;;;17.50;86.40;;;;;;5052028;28;20056;-71
2023/09/18 00:58:27;;;;;;;25.63;22.95;;;17.60;86.60;;;;;;5052405;28;20056;-70
2023/09/18 01:00:53;;;;;;;26.55;23.73;;;17.60;86.70;;;;;;5035068;28;20040;-70
2023/09/18 01:03:21;;;;;;;26.08;23.27;;;17.60;86.80;;;;;;5034886;28;20033;-70
2023/09/18 01:05:47;;;;;;;26.63;23.92;;;17.60;87.00;;;;;;5051399;28;20489;-70
2023/09/18 01:08:12;;;;;;;26.73;24.02;;;17.60;87.00;;;;;;5051992;28;20124;-70
2023/09/18 01:11:05;;;;;;;26.48;23.75;;;17.70;87.20;;;;;;5051752;28;20048;-70
2023/09/18 01:13:38;;;;;;;25.90;23.20;;;17.70;87.40;;;;;;5051744;28;20078;-70
2023/09/18 01:16:16;;;;;;;28.38;25.33;;;17.70;87.50;;;;;;5051567;28;20040;-70
2023/09/18 01:18:50;;;;;;;27.10;24.40;;;17.70;87.60;;;;;;5051831;28;20131;-70
2023/09/18 01:21:15;;;;;;;26.55;23.75;;;17.70;87.70;;;;;;5051684;28;20051;-70
2023/09/18 01:23:41;;;;;;;26.98;24.23;;;17.70;87.60;;;;;;5034316;28;20041;-70
2023/09/18 01:26:07;;;;;;;25.08;22.45;;;17.80;87.80;;;;;;5051456;28;20048;-70
2023/09/18 01:28:33;;;;;;;27.67;24.73;;;17.80;87.90;;;;;;5051591;28;20045;-70
2023/09/18 01:30:59;;;;;;;28.08;25.08;;;17.80;88.00;;;;;;5035068;28;20052;-70
2023/09/18 01:33:27;;;;;;;27.60;24.70;;;17.80;88.10;;;;;;5051308;28;20045;-70
2023/09/18 01:35:55;;;;;;;29.13;26.25;;;17.90;88.30;;;;;;5051125;28;20048;-70
2023/09/18 01:38:23;;;;;;;27.80;24.95;;;17.90;88.50;;;;;;5051569;28;20048;-70
2023/09/18 01:40:50;;;;;;;30.15;27.15;;;17.90;88.50;;;;;;5051229;28;20389;-70
2023/09/18 01:43:16;;;;;;;29.60;26.70;;;18.00;88.60;;;;;;5050975;28;20033;-70
2023/09/18 01:45:42;;;;;;;29.67;26.63;;;18.00;88.50;;;;;;5034821;28;20484;-70
2023/09/18 01:48:08;;;;;;;30.95;27.67;;;18.00;88.50;;;;;;5051544;28;20041;-70
2023/09/18 01:50:36;;;;;;;30.05;26.98;;;18.00;88.50;;;;;;5051453;28;20048;-71
2023/09/18 01:53:02;;;;;;;28.50;25.63;;;18.00;88.40;;;;;;5050863;28;20484;-70
2023/09/18 01:55:29;;;;;;;28.30;25.55;;;18.10;88.50;;;;;;5034451;28;20048;-70
2023/09/18 01:57:55;;;;;;;29.15;26.27;;;18.10;88.60;;;;;;5051439;28;20179;-70
2023/09/18 02:00:21;;;;;;;28.00;25.10;;;18.10;88.60;;;;;;5051179;28;20041;-70
2023/09/18 02:02:47;;;;;;;28.90;26.00;;;18.10;88.50;;;;;;5034809;28;20029;-70
2023/09/18 02:05:13;;;;;;;28.80;26.08;;;18.20;88.50;;;;;;5050715;28;20060;-70
2023/09/18 02:07:38;;;;;;;29.35;26.27;;;18.20;88.50;;;;;;5051488;28;20091;-70
2023/09/18 02:10:04;;;;;;;27.45;24.73;;;18.20;88.40;;;;;;5051036;28;20037;-70
2023/09/18 02:12:30;;;;;;;28.63;25.73;;;18.20;88.40;;;;;;5051542;28;20575;-70
2023/09/18 02:14:58;;;;;;;28.80;25.77;;;18.20;88.30;;;;;;5050868;28;20175;-70
2023/09/18 02:17:24;;;;;;;28.40;25.13;;;18.20;88.30;;;;;;5051088;28;20045;-70
2023/09/18 02:19:50;;;;;;;28.48;25.77;;;18.20;88.30;;;;;;5034744;28;20043;-70
2023/09/18 02:22:15;;;;;;;28.15;25.45;;;18.20;88.40;;;;;;5050826;28;20037;-70
2023/09/18 02:24:41;;;;;;;28.10;25.25;;;18.20;88.30;;;;;;5050622;28;20048;-70
2023/09/18 02:27:07;;;;;;;26.67;24.13;;;18.30;88.40;;;;;;5050951;28;20041;-70
2023/09/18 02:29:32;;;;;;;28.05;25.25;;;18.30;88.40;;;;;;5034624;28;20037;-70
2023/09/18 02:31:58;;;;;;;27.20;24.50;;;18.30;88.40;;;;;;5051365;28;20045;-70
2023/09/18 02:34:24;;;;;;;28.10;25.38;;;18.30;88.30;;;;;;5051062;28;20480;-70
2023/09/18 02:36:49;;;;;;;27.55;24.92;;;18.30;88.30;;;;;;5034330;28;20469;-70
2023/09/18 02:39:15;;;;;;;27.20;24.38;;;18.30;88.30;;;;;;5050963;28;20488;-70
2023/09/18 02:41:40;;;;;;;26.15;23.48;;;18.40;88.40;;;;;;5050840;28;20158;-70
2023/09/18 02:44:06;;;;;;;25.00;22.67;;;18.40;88.40;;;;;;5051073;28;20118;-70
2023/09/18 02:46:32;;;;;;;26.60;24.08;;;18.40;88.30;;;;;;5050996;28;20040;-70
2023/09/18 02:48:57;;;;;;;26.10;23.42;;;18.40;88.30;;;;;;5036916;28;20403;-70
2023/09/18 02:51:23;;;;;;;25.65;23.05;;;18.40;88.20;;;;;;5054593;28;20095;-70
2023/09/18 02:53:49;;;;;;;26.30;23.63;;;18.40;88.20;;;;;;5053897;28;20044;-70
2023/09/18 02:56:15;;;;;;;25.30;22.77;;;18.40;88.20;;;;;;5054157;28;20047;-71
2023/09/18 02:58:40;;;;;;;25.55;22.98;;;18.40;88.10;;;;;;5054729;28;20042;-70
2023/09/18 03:01:08;;;;;;;23.25;20.95;;;18.40;88.00;;;;;;5054025;28;20045;-71
2023/09/18 03:03:33;;;;;;;24.50;22.17;;;18.40;88.00;;;;;;5053978;28;20108;-71
2023/09/18 03:06:04;;;;;;;24.90;22.40;;;18.40;88.00;;;;;;5054048;28;20121;-71
2023/09/18 03:08:30;;;;;;;23.52;21.23;;;18.40;87.90;;;;;;5054515;28;20037;-70
2023/09/18 03:10:56;;;;;;;26.08;23.33;;;18.40;87.90;;;;;;5054394;28;20389;-70
2023/09/18 03:13:22;;;;;;;25.40;22.83;;;18.40;88.20;;;;;;5054051;28;20045;-70
2023/09/18 03:15:48;;;;;;;23.88;21.48;;;18.40;87.70;;;;;;5053590;28;20048;-71
2023/09/18 03:18:14;;;;;;;24.55;22.20;;;18.40;87.70;;;;;;5053897;28;20503;-70
2023/09/18 03:20:40;;;;;;;25.83;23.02;;;18.40;87.70;;;;;;5053825;28;20133;-70
2023/09/18 03:23:06;;;;;;;26.15;23.30;;;18.40;87.70;;;;;;5053573;28;20036;-70
2023/09/18 03:25:31;;;;;;;25.80;23.08;;;18.40;87.80;;;;;;5037387;28;20241;-70
2023/09/18 03:27:58;;;;;;;25.27;22.88;;;18.40;87.80;;;;;;5053893;28;20071;-70
2023/09/18 03:30:24;;;;;;;25.75;23.25;;;18.40;87.80;;;;;;5054136;28;20392;-70
2023/09/18 03:32:50;;;;;;;26.52;23.65;;;18.40;87.80;;;;;;5053435;28;20127;-70
2023/09/18 03:35:19;;;;;;;25.10;22.65;;;18.40;87.90;;;;;;5053291;28;20044;-71
2023/09/18 03:37:50;;;;;;;25.20;22.77;;;18.50;87.90;;;;;;5053684;28;20045;-71
2023/09/18 03:40:19;;;;;;;24.67;22.02;;;18.50;88.00;;;;;;5053383;28;20515;-71
2023/09/18 03:42:46;;;;;;;23.13;20.83;;;18.50;88.00;;;;;;5053415;28;20393;-71
2023/09/18 03:45:12;;;;;;;25.10;22.60;;;18.50;88.00;;;;;;5053449;28;20037;-71
2023/09/18 03:47:39;;;;;;;26.05;22.63;;;18.50;88.00;;;;;;5053085;28;20428;-70
2023/09/18 03:50:06;;;;;;;24.58;22.15;;;18.50;88.10;;;;;;5036885;28;20120;-71
2023/09/18 03:52:32;;;;;;;24.77;22.17;;;18.50;88.00;;;;;;5053058;28;20116;-71
2023/09/18 03:54:57;;;;;;;24.67;22.05;;;18.50;88.00;;;;;;5052962;28;20171;-71
2023/09/18 03:57:23;;;;;;;23.55;21.20;;;18.50;88.00;;;;;;5036987;28;20102;-70
2023/09/18 03:59:49;;;;;;;22.10;19.83;;;18.50;88.00;;;;;;5053529;28;20033;-71
2023/09/18 04:02:15;;;;;;;22.98;20.73;;;18.50;88.00;;;;;;5052722;28;20381;-71
2023/09/18 04:04:40;;;;;;;22.05;19.95;;;18.60;88.00;;;;;;5061696;28;20037;-71
2023/09/18 04:07:06;;;;;;;22.52;20.33;;;18.60;87.90;;;;;;5053255;28;20060;-71
2023/09/18 04:09:34;;;;;;;21.90;19.75;;;18.60;87.90;;;;;;5053143;28;20099;-71
2023/09/18 04:12:05;;;;;;;20.98;18.70;;;18.60;87.80;;;;;;5053063;28;20044;-71
2023/09/18 04:14:31;;;;;;;20.38;18.30;;;18.60;87.80;;;;;;5068944;28;20476;-71
2023/09/18 04:16:57;;;;;;;19.55;17.65;;;18.60;87.70;;;;;;5052945;28;20041;-71
2023/09/18 04:19:22;;;;;;;20.55;18.30;;;18.60;87.70;;;;;;5053118;28;20041;-71
2023/09/18 04:21:48;;;;;;;19.40;17.38;;;18.60;87.60;;;;;;5052491;28;20045;-71
2023/09/18 04:24:14;;;;;;;18.55;16.75;;;18.60;87.50;;;;;;5052028;28;20423;-71
2023/09/18 04:26:40;;;;;;;18.00;16.20;;;18.60;87.50;;;;;;5052842;28;20075;-71
2023/09/18 04:29:05;;;;;;;19.27;16.15;;;18.60;87.40;;;;;;5052600;28;20044;-71
2023/09/18 04:31:31;;;;;;;18.42;16.50;;;18.60;87.40;;;;;;5052648;28;20123;-71
2023/09/18 04:33:57;;;;;;;18.85;17.05;;;18.60;87.40;;;;;;5051894;28;20045;-71
2023/09/18 04:36:24;;;;;;;18.00;16.15;;;18.60;87.30;;;;;;5052891;28;20037;-71
2023/09/18 04:38:50;;;;;;;17.48;15.65;;;18.70;87.40;;;;;;5052284;28;20080;-71
2023/09/18 04:41:16;;;;;;;18.05;16.25;;;18.70;87.30;;;;;;5052240;28;20045;-71
2023/09/18 04:43:44;;;;;;;18.25;16.25;;;18.60;87.30;;;;;;5035260;28;20067;-71
2023/09/18 04:46:10;;;;;;;16.95;15.25;;;18.70;87.40;;;;;;5052313;28;20098;-71
2023/09/18 04:48:36;;;;;;;17.92;14.00;;;18.70;87.40;;;;;;5052351;28;20044;-71
2023/09/18 04:51:03;;;;;;;15.20;13.55;;;18.70;87.40;;;;;;5052173;28;20049;-70
2023/09/18 04:53:30;;;;;;;16.00;13.50;;;18.70;87.40;;;;;;5052019;28;20119;-70
2023/09/18 04:55:55;;;;;;;15.93;13.00;;;18.70;87.30;;;;;;5052219;28;20396;-70
2023/09/18 04:58:21;;;;;;;16.42;13.70;;;18.80;87.40;;;;;;5052123;28;20037;-70
2023/09/18 05:00:54;;;;;;;13.52;12.13;;;18.70;87.30;;;;;;5051822;28;20107;-70
2023/09/18 05:03:21;;;;;;;13.93;12.53;;;18.80;87.40;;;;;;5051813;28;20040;-70
2023/09/18 05:05:47;;;;;;;13.07;11.77;;;18.80;87.30;;;;;;5052072;28;20052;-70
2023/09/18 05:08:12;;;;;;;13.68;12.27;;;18.80;87.30;;;;;;5052269;28;20064;-70
2023/09/18 05:10:38;;;;;;;14.93;13.05;;;18.80;87.30;;;;;;5051521;28;20503;-70
2023/09/18 05:13:04;;;;;;;14.25;12.25;;;18.80;87.20;;;;;;5051479;28;20045;-70
2023/09/18 05:15:30;;;;;;;17.65;13.63;;;18.80;87.20;;;;;;5051661;28;20110;-70
2023/09/18 05:17:57;;;;;;;14.48;13.07;;;18.90;87.20;;;;;;5052050;28;20052;-70
2023/09/18 05:20:28;;;;;;;15.05;13.45;;;18.90;87.10;;;;;;5051677;28;20548;-70
2023/09/18 05:22:55;;;;;;;14.40;13.00;;;18.90;87.10;;;;;;5051303;28;20029;-70
2023/09/18 05:25:22;;;;;;;14.88;13.38;;;18.90;87.00;;;;;;5051660;28;20036;-70
2023/09/18 05:27:55;;;;;;;14.52;13.02;;;18.90;87.00;;;;;;5051322;28;20095;-70
2023/09/18 05:30:27;;;;;;;14.35;12.88;;;18.90;87.00;;;;;;5050655;28;20084;-70
2023/09/18 05:32:54;;;;;;;14.73;13.23;;;18.90;87.00;;;;;;5040789;28;20452;-70
2023/09/18 05:35:20;;;;;;;15.23;11.85;;;18.90;86.90;;;;;;5051819;28;20049;-70
2023/09/18 05:37:46;;;;;;;14.55;13.07;;;18.90;86.90;;;;;;5050226;28;20074;-70
2023/09/18 05:40:13;;;;;;;16.20;13.82;;;18.90;86.90;;;;;;5034440;28;20114;-70
2023/09/18 05:42:45;;;;;;;14.52;13.02;;;18.90;86.80;;;;;;5045189;28;20072;-70
2023/09/18 05:45:12;;;;;;;14.60;12.80;;;18.90;86.80;;;;;;5017849;28;20029;-70
2023/09/18 05:47:40;;;;;;;13.70;12.20;;;18.90;86.80;;;;;;5051496;28;20040;-70
2023/09/18 05:50:08;;;;;;;17.63;13.85;;;18.90;86.80;;;;;;5051433;28;20480;-70
2023/09/18 05:52:34;;;;;;;13.80;12.07;;;18.90;86.80;;;;;;5051651;28;20064;-70
2023/09/18 05:55:01;;;;;;;15.05;13.02;;;18.90;86.90;;;;;;5035034;28;20354;-70
2023/09/18 05:57:27;;;;;;;14.88;13.38;;;18.90;86.90;;;;;;5038214;28;20087;-70
2023/09/18 05:59:55;;;;;;;15.23;13.73;;;18.90;87.30;;;;;;5049768;28;20496;-70
2023/09/18 06:02:21;;;;;;;15.10;13.50;;;18.90;86.90;;;;;;5051010;28;20048;-70
2023/09/18 06:04:47;;;;;;;15.10;13.48;;;18.90;86.90;;;;;;5034809;28;20061;-70
2023/09/18 06:07:13;;;;;;;16.10;13.02;;;18.90;87.00;;;;;;5051377;28;20041;-70
2023/09/18 06:09:39;;;;;;;17.30;14.75;;;19.00;87.10;;;;;;5051189;28;20049;-70
2023/09/18 06:12:05;;;;;;;18.70;14.82;;;18.90;87.10;;;;;;5051586;28;20103;-70
2023/09/18 06:14:34;;;;;;;16.00;13.95;;;18.90;87.10;;;;;;5051296;28;20488;-70
2023/09/18 06:16:59;;;;;;;15.55;13.95;;;18.90;87.20;;;;;;5051463;28;20553;-70
2023/09/18 06:19:25;;;;;;;17.00;14.52;;;19.00;87.30;;;;;;5031881;28;20040;-69
2023/09/18 06:21:50;;;;;;;17.23;14.90;;;19.00;87.40;;;;;;5050312;28;20057;-69
2023/09/18 06:24:16;;;;;;;16.73;13.95;;;19.00;87.40;;;;;;5053482;28;20041;-70
2023/09/18 06:26:42;;;;;;;15.20;13.52;;;19.00;87.40;;;;;;5054498;28;20122;-70
2023/09/18 06:29:09;;;;;;;14.75;12.27;;;19.00;87.90;;;;;;5054959;28;20045;-69
2023/09/18 06:31:35;;;;;;;19.45;14.95;;;19.00;87.40;;;;;;5054847;28;20044;-69
2023/09/18 06:34:01;;;;;;;14.90;13.30;;;19.00;87.40;;;;;;5054774;28;20044;-70
2023/09/18 06:36:26;;;;;;;16.70;14.48;;;19.00;87.40;;;;;;5054499;28;20041;-70
2023/09/18 06:38:53;;;;;;;14.90;13.20;;;19.00;87.30;;;;;;5038236;28;20051;-69
2023/09/18 06:41:19;;;;;;;14.73;12.90;;;19.00;87.30;;;;;;5054549;28;20053;-69
2023/09/18 06:43:44;;;;;;;14.82;12.90;;;19.10;87.20;;;;;;5054799;28;20167;-69
2023/09/18 06:46:10;;;;;;;16.23;13.88;;;19.10;87.10;;;;;;5071314;28;20045;-69
2023/09/18 06:48:36;;;;;;;17.13;15.32;;;19.10;87.10;;;;;;5054583;28;20044;-69
2023/09/18 06:51:02;;;;;;;19.30;15.00;;;19.10;87.10;;;;;;5054750;28;20079;-69
2023/09/18 06:53:28;;;;;;;20.88;15.02;;;19.10;87.20;;;;;;5054428;28;20484;-70
2023/09/18 06:55:54;;;;;;;22.92;16.25;;;19.10;87.30;;;;;;5038247;28;20412;-71
2023/09/18 06:58:20;;;;;;;19.33;15.77;;;19.10;87.40;;;;;;5054436;28;20041;-72
2023/09/18 07:00:46;;;;;;;18.13;15.35;;;19.10;87.40;;;;;;5054277;28;20041;-71
2023/09/18 07:03:12;;;;;;;20.27;14.73;;;19.10;87.50;;;;;;5054468;28;20471;-71
2023/09/18 07:05:39;;;;;;;19.70;16.13;;;19.20;87.50;;;;;;5054363;28;20072;-71
2023/09/18 07:08:09;;;;;;;18.58;16.58;;;19.20;87.60;;;;;;5054526;28;20361;-71
2023/09/18 07:10:35;;;;;;;21.33;16.73;;;19.20;87.70;;;;;;5053681;28;20041;-71
2023/09/18 07:13:01;;;;;;;19.75;16.73;;;19.20;87.90;;;;;;5037904;28;20115;-71
2023/09/18 07:15:27;;;;;;;21.13;18.20;;;19.20;88.10;;;;;;5037577;28;20049;-71
2023/09/18 07:17:52;;;;;;;22.20;18.60;;;19.20;88.30;;;;;;5054127;28;20041;-71
2023/09/18 07:20:18;;;;;;;23.33;18.95;;;19.20;88.40;;;;;;5053856;28;20047;-71
2023/09/18 07:22:48;;;;;;;21.00;17.80;;;19.20;88.60;;;;;;5037360;28;20037;-71
2023/09/18 07:25:14;;;;;;;19.55;17.50;;;19.20;88.80;;;;;;5037641;28;20040;-71
2023/09/18 07:27:43;;;;;;;19.75;17.75;;;19.20;88.80;;;;;;5053602;28;20119;-71
2023/09/18 07:30:10;;;;;;;18.67;15.90;;;19.30;89.00;;;;;;5038090;28;20138;-71
2023/09/18 07:32:36;;;;;;;19.52;17.42;;;19.30;89.00;;;;;;5053721;28;20041;-71
2023/09/18 07:35:04;;;;;;;19.30;16.55;;;19.30;89.20;;;;;;5053219;28;20125;-71
2023/09/18 07:37:30;;;;;;;20.13;17.80;;;19.30;89.20;;;;;;5037438;28;20044;-71
2023/09/18 07:39:56;;;;;;;19.52;17.45;;;19.30;89.30;;;;;;5037377;28;20384;-71
2023/09/18 07:42:28;;;;;;;22.13;19.60;;;19.30;89.60;;;;;;5036925;28;20060;-71
2023/09/18 07:44:54;;;;;;;19.17;16.95;;;19.30;89.60;;;;;;5053153;28;20041;-71
2023/09/18 07:47:20;;;;;;;20.17;17.95;;;19.30;89.60;;;;;;5053740;28;20033;-71
2023/09/18 07:49:46;;;;;;;22.45;18.67;;;19.40;89.70;;;;;;5037232;28;20041;-71
2023/09/18 07:52:12;;;;;;;23.38;18.10;;;19.30;89.70;;;;;;5053447;28;20049;-71
2023/09/18 07:54:38;;;;;;;19.90;16.95;;;19.40;89.80;;;;;;5036843;28;20071;-71
2023/09/18 07:57:04;;;;;;;17.05;14.75;;;19.40;89.90;;;;;;5053325;28;20045;-71
2023/09/18 07:59:30;;;;;;;16.60;14.70;;;19.40;89.90;;;;;;5053215;28;20045;-71
2023/09/18 08:01:56;;;;;;;13.60;12.20;;;19.40;89.90;;;;;;5053158;28;20535;-71
2023/09/18 08:04:21;;;;;;;13.23;10.90;;;19.40;89.90;;;;;;5053203;28;20049;-71
2023/09/18 08:06:47;;;;;;;12.60;11.30;;;19.40;89.80;;;;;;5053107;28;20471;-71
2023/09/18 08:09:15;;;;;;;13.80;10.63;;;19.40;89.70;;;;;;5053415;28;20044;-71
2023/09/18 08:11:42;;;;;;;10.40;8.73;;;19.40;89.70;;;;;;5053103;28;20049;-71
2023/09/18 08:14:11;;;;;;;10.30;8.50;;;19.40;89.60;;;;;;5069884;28;20041;-72
2023/09/18 08:16:40;;;;;;;12.32;8.68;;;19.40;89.60;;;;;;5052645;28;20040;-71
2023/09/18 08:19:06;;;;;;;10.70;9.57;;;19.50;89.70;;;;;;5069517;28;20048;-71
2023/09/18 08:21:32;;;;;;;9.65;8.70;;;19.50;89.70;;;;;;5069422;28;20037;-71
2023/09/18 08:23:58;;;;;;;11.43;9.00;;;19.50;89.80;;;;;;5069475;28;20041;-71
2023/09/18 08:26:25;;;;;;;10.38;8.80;;;19.50;89.80;;;;;;5069638;28;20048;-72
2023/09/18 08:28:51;;;;;;;11.55;9.80;;;19.50;89.90;;;;;;5069360;28;20481;-72
2023/09/18 08:31:16;;;;;;;12.18;9.57;;;19.50;89.90;;;;;;5069245;28;20045;-72
2023/09/18 08:33:43;;;;;;;11.65;10.05;;;19.50;89.90;;;;;;5052499;28;20037;-71
2023/09/18 08:36:09;;;;;;;11.23;9.82;;;19.50;89.90;;;;;;5052704;28;20084;-71
2023/09/18 08:38:35;;;;;;;13.85;11.35;;;19.50;89.90;;;;;;5052460;28;20041;-72
2023/09/18 08:41:01;;;;;;;13.52;11.77;;;19.50;89.90;;;;;;5052187;28;20385;-72
2023/09/18 08:43:31;;;;;;;13.95;11.90;;;19.60;90.00;;;;;;5052335;28;20056;-71
2023/09/18 08:46:01;;;;;;;14.13;11.30;;;19.60;90.00;;;;;;5051655;28;20044;-72
2023/09/18 08:48:34;;;;;;;14.10;11.82;;;19.60;89.90;;;;;;5052336;28;20041;-72
2023/09/18 08:51:02;;;;;;;16.23;12.93;;;19.60;89.90;;;;;;5052373;28;20127;-72
2023/09/18 08:53:30;;;;;;;14.68;13.15;;;19.60;89.80;;;;;;5035931;28;20044;-72
2023/09/18 08:55:58;;;;;;;16.50;13.07;;;19.60;89.90;;;;;;5052118;28;20088;-71
2023/09/18 08:58:26;;;;;;;13.95;12.52;;;19.60;89.90;;;;;;5052161;28;20487;-71
2023/09/18 09:00:53;;;;;;;16.63;12.63;;;19.70;89.90;;;;;;5052293;28;20107;-72
2023/09/18 09:03:18;;;;;;;15.60;12.25;;;19.70;89.90;;;;;;5052351;28;20175;-71
2023/09/18 09:05:44;;;;;;;14.38;12.02;;;19.70;89.90;;;;;;5052069;28;20120;-72
2023/09/18 09:08:10;;;;;;;15.23;13.52;;;19.70;90.00;;;;;;5035146;28;20037;-71
2023/09/18 09:10:35;;;;;;;15.93;14.23;;;19.70;90.00;;;;;;5035310;28;20045;-71
2023/09/18 09:13:02;;;;;;;14.23;12.82;;;19.80;90.10;;;;;;5052056;28;20044;-72
2023/09/18 09:15:47;;;;;;;15.10;13.48;;;19.70;90.10;;;;;;5035415;28;20037;-72
2023/09/18 09:18:15;;;;;;;15.18;13.68;;;19.80;90.20;;;;;;5035319;28;20059;-72
2023/09/18 09:20:41;;;;;;;17.88;16.08;;;19.80;90.30;;;;;;5051825;28;20041;-72
2023/09/18 09:23:08;;;;;;;16.83;15.00;;;19.90;90.40;;;;;;5051829;28;20119;-71
2023/09/18 09:25:34;;;;;;;17.98;15.15;;;19.90;90.40;;;;;;5051680;28;20479;-71
2023/09/18 09:28:05;;;;;;;15.98;14.27;;;20.00;90.40;;;;;;5051768;28;20120;-71
2023/09/18 09:30:33;;;;;;;18.50;14.50;;;20.00;90.40;;;;;;5051881;28;20391;-71
2023/09/18 09:32:59;;;;;;;17.08;15.38;;;20.10;90.40;;;;;;5051594;28;20052;-71
2023/09/18 09:35:30;;;;;;;14.68;12.80;;;20.10;90.40;;;;;;5051575;28;20041;-71
2023/09/18 09:38:08;;;;;;;15.95;14.27;;;20.10;90.30;;;;;;5068225;28;20049;-71
2023/09/18 09:40:35;;;;;;;14.50;12.82;;;20.20;90.20;;;;;;5050826;28;20052;-72
2023/09/18 09:43:02;;;;;;;13.20;11.90;;;20.20;90.20;;;;;;5051557;28;20049;-71
2023/09/18 09:45:29;;;;;;;13.93;11.75;;;20.30;90.20;;;;;;5034985;28;20033;-71
2023/09/18 09:47:57;;;;;;;12.48;11.23;;;20.30;90.10;;;;;;5034920;28;20037;-71
2023/09/18 09:50:25;;;;;;;13.10;11.80;;;20.40;89.80;;;;;;5034835;28;20048;-72
2023/09/18 09:52:52;;;;;;;12.65;11.52;;;20.50;89.60;;;;;;5051605;28;20037;-71
2023/09/18 09:55:33;;;;;;;12.27;11.07;;;20.50;89.40;;;;;;5051504;28;20120;-71
2023/09/18 09:58:02;;;;;;;11.63;10.52;;;20.60;89.30;;;;;;5052703;28;20120;-72
2023/09/18 10:00:33;;;;;;;13.95;10.27;;;20.70;89.10;;;;;;5055254;28;20040;-71
2023/09/18 10:03:04;;;;;;;9.55;8.60;;;20.80;89.00;;;;;;5054592;28;20052;-72
2023/09/18 10:05:35;;;;;;;10.13;9.13;;;20.90;88.70;;;;;;5055531;28;20111;-71
2023/09/18 10:08:11;;;;;;;10.18;9.13;;;20.90;88.20;;;;;;5055236;28;20120;-71
2023/09/18 10:10:43;;;;;;;10.23;9.30;;;21.00;87.80;;;;;;5055372;28;20484;-72
2023/09/18 10:13:32;;;;;;;9.73;8.48;;;21.00;87.60;;;;;;5038432;28;20040;-71
2023/09/18 10:16:02;;;;;;;9.27;8.35;;;21.20;86.80;;;;;;5055014;28;20037;-72
2023/09/18 10:18:47;;;;;;;11.18;8.93;;;21.30;86.80;;;;;;5055530;28;20052;-71
2023/09/18 10:21:20;;;;;;;7.68;6.97;;;21.40;86.90;;;;;;5055104;28;20056;-71
2023/09/18 10:23:58;;;;;;;9.02;7.53;;;21.50;86.50;;;;;;5055049;28;20041;-71
2023/09/18 10:26:29;;;;;;;6.82;6.00;;;21.60;85.50;;;;;;5055362;28;20396;-71
2023/09/18 10:28:59;;;;;;;7.82;6.85;;;21.70;84.80;;;;;;5054834;28;20045;-71
2023/09/18 10:31:28;;;;;;;6.90;6.18;;;21.80;84.00;;;;;;5055166;28;20119;-71
2023/09/18 10:33:59;;;;;;;10.15;6.40;;;21.80;83.20;;;;;;5071478;28;20163;-71
2023/09/18 10:36:26;;;;;;;6.18;5.50;;;21.90;82.60;;;;;;5071616;28;20111;-71
2023/09/18 10:38:55;;;;;;;6.60;5.80;;;21.90;81.80;;;;;;5055079;28;20076;-72
2023/09/18 10:41:21;;;;;;;6.05;5.22;;;21.90;81.30;;;;;;5071272;28;20126;-71
2023/09/18 10:43:50;;;;;;;6.75;5.35;;;21.90;81.10;;;;;;5054781;28;20083;-71
2023/09/18 10:46:16;;;;;;;6.38;5.50;;;22.00;80.50;;;;;;5046557;28;20553;-71
2023/09/18 10:48:43;;;;;;;7.13;5.53;;;22.00;80.20;;;;;;5064456;28;20362;-71
2023/09/18 10:51:10;;;;;;;5.88;4.82;;;22.00;80.10;;;;;;5042450;28;20045;-72
2023/09/18 10:53:36;;;;;;;6.93;4.93;;;22.00;80.20;;;;;;5046563;28;20553;-71
2023/09/18 10:56:06;;;;;;;5.93;4.65;;;22.00;80.30;;;;;;5054473;28;20081;-72
2023/09/18 10:58:35;;;;;;;7.20;4.75;;;22.10;79.90;;;;;;5054737;28;20126;-71
2023/09/18 11:01:04;;;;;;;6.70;4.55;;;22.10;79.60;;;;;;5054354;28;20128;-71
2023/09/18 11:03:32;;;;;;;4.78;4.03;;;22.20;79.30;;;;;;5032556;28;20037;-71
2023/09/18 11:06:11;;;;;;;4.95;4.03;;;22.20;78.80;;;;;;5039766;28;20033;-71
2023/09/18 11:08:48;;;;;;;5.72;4.55;;;22.20;78.40;;;;;;5033532;28;20094;-71
2023/09/18 11:11:19;;;;;;;6.20;4.68;;;22.30;78.50;;;;;;5044778;28;20072;-71
2023/09/18 11:13:47;;;;;;;5.55;4.63;;;22.30;77.90;;;;;;5045479;28;20041;-71
2023/09/18 11:16:38;;;;;;;6.72;4.45;;;22.30;77.30;;;;;;5060251;28;20398;-71
2023/09/18 11:19:05;;;;;;;7.00;4.82;;;22.20;76.90;;;;;;5046097;28;20102;-70
2023/09/18 11:21:33;;;;;;;6.35;4.45;;;22.20;77.20;;;;;;5047636;28;20038;-71
2023/09/18 11:24:15;;;;;;;4.60;4.18;;;22.20;77.00;;;;;;5043213;28;20550;-71
2023/09/18 11:26:42;;;;;;;7.05;4.47;;;22.30;77.50;;;;;;5043483;28;20053;-72
2023/09/18 11:29:11;;;;;;;6.45;4.35;;;22.30;78.20;;;;;;5051899;28;20052;-69
2023/09/18 11:31:54;;;;;;;5.53;4.00;;;22.30;78.00;;;;;;5070502;28;20040;-69
2023/09/18 11:34:28;;;;;;;5.80;4.15;;;22.40;78.10;;;;;;5053686;28;20041;-69
2023/09/18 11:36:55;;;;;;;6.97;4.93;;;22.50;77.80;;;;;;5053405;28;20052;-71
2023/09/18 11:39:50;;;;;;;6.32;4.10;;;22.50;76.80;;;;;;5053284;28;20433;-70
2023/09/18 11:42:19;;;;;;;5.43;4.20;;;22.60;76.60;;;;;;5032339;28;20049;-70
2023/09/18 11:44:46;;;;;;;4.80;4.10;;;22.60;76.80;;;;;;5052971;28;20052;-69
2023/09/18 11:47:24;;;;;;;5.95;3.95;;;22.70;76.30;;;;;;5053436;28;20827;-70
2023/09/18 11:49:52;;;;;;;5.78;4.15;;;22.80;75.20;;;;;;5069356;28;20099;-71
2023/09/18 11:52:19;;;;;;;6.28;4.00;;;22.80;75.00;;;;;;5053448;28;20052;-71
2023/09/18 11:54:46;;;;;;;5.57;4.60;;;22.80;74.60;;;;;;5036397;28;20037;-71
2023/09/18 11:57:13;;;;;;;6.78;3.75;;;22.90;73.80;;;;;;5053482;28;20162;-71
2023/09/18 11:59:43;;;;;;;4.78;3.63;;;22.90;73.40;;;;;;5055299;28;20045;-70
2023/09/18 12:02:36;;;;;;;5.78;3.55;;;22.90;73.30;;;;;;5061704;28;20044;-70
2023/09/18 12:05:18;;;;;;;4.70;3.65;;;23.00;73.50;;;;;;5064685;28;20036;-70
2023/09/18 12:07:45;;;;;;;6.60;3.78;;;23.00;73.70;;;;;;5062898;28;20037;-70
2023/09/18 12:10:14;;;;;;;7.32;4.10;;;23.00;73.80;;;;;;5062259;28;20054;-70
2023/09/18 12:12:42;;;;;;;6.55;4.57;;;23.10;73.20;;;;;;5065535;28;20040;-70
2023/09/18 12:15:11;;;;;;;6.07;3.70;;;23.10;72.00;;;;;;5063191;28;20037;-69
2023/09/18 12:17:37;;;;;;;6.13;4.00;;;23.20;72.20;;;;;;5062685;28;20086;-69
2023/09/18 12:20:05;;;;;;;5.40;4.30;;;23.20;72.30;;;;;;5063820;28;20033;-70
2023/09/18 12:22:32;;;;;;;5.20;4.30;;;23.20;71.80;;;;;;5062048;28;20115;-70
2023/09/18 12:25:14;;;;;;;4.32;3.72;;;23.20;71.40;;;;;;5064294;28;20078;-71
2023/09/18 12:27:41;;;;;;;5.13;3.90;;;23.30;70.70;;;;;;5046416;28;20041;-70
2023/09/18 12:30:08;;;;;;;4.55;3.67;;;23.30;70.90;;;;;;5053657;28;20045;-69
2023/09/18 12:32:40;;;;;;;4.75;4.35;;;23.40;70.50;;;;;;5059854;28;20120;-69
2023/09/18 12:35:07;;;;;;;5.20;3.72;;;23.40;69.30;;;;;;5056421;28;20048;-70